Time;durP1;ratioP1;P1;durP2;ratioP2;P2;SDS_P1;SDS_P2;PMS_P1;PMS_P2;Temp;Humidity;BMP_temperature;BMP_pressure;BME280_temperature;BME280_humidity;BME280_pressure;Samples;Min_cycle;Max_cycle;Signal;HPM_P1;HPM_P2
2023/10/12 00:02:26;;;;;;;19.35;7.45;;;16.70;99.90;;;;;;5048339;28;20037;-72
2023/10/12 00:12:44;;;;;;;22.77;8.35;;;16.80;99.90;;;;;;5047872;28;20564;-72
2023/10/12 00:17:50;;;;;;;21.55;8.23;;;16.90;99.90;;;;;;5043138;28;20056;-75
2023/10/12 00:22:58;;;;;;;;;;;16.80;99.90;;;;;;5045094;28;20120;-72
2023/10/12 00:25:25;;;;;;;20.25;8.82;;;16.80;99.90;;;;;;5029945;28;19970;-71
2023/10/12 00:27:51;;;;;;;21.48;7.80;;;16.80;99.90;;;;;;5029037;28;20060;-73
2023/10/12 00:30:17;;;;;;;27.23;7.82;;;16.80;99.90;;;;;;5029632;28;20036;-73
2023/10/12 00:32:43;;;;;;;21.02;7.80;;;16.80;99.90;;;;;;5027688;28;20343;-74
2023/10/12 00:35:14;;;;;;;25.77;8.77;;;16.70;99.90;;;;;;5047763;28;20094;-71
2023/10/12 00:37:41;;;;;;;17.38;6.65;;;16.70;99.90;;;;;;5046656;28;20428;-71
2023/10/12 00:40:30;;;;;;;23.40;7.15;;;16.70;99.90;;;;;;5047466;28;20061;-72
2023/10/12 00:42:59;;;;;;;23.00;6.45;;;16.70;99.90;;;;;;5044471;28;20044;-72
2023/10/12 00:45:29;;;;;;;20.45;6.70;;;16.70;99.90;;;;;;5047782;28;20029;-74
2023/10/12 00:48:06;;;;;;;22.33;6.97;;;16.70;99.90;;;;;;5046951;28;20164;-72
2023/10/12 00:50:32;;;;;;;21.83;6.88;;;16.60;99.90;;;;;;5028748;28;20071;-72
2023/10/12 00:53:14;;;;;;;21.83;7.80;;;16.60;99.90;;;;;;5046920;28;20075;-73
2023/10/12 00:55:41;;;;;;;22.70;6.60;;;16.60;99.90;;;;;;5028061;28;20516;-73
2023/10/12 00:58:10;;;;;;;20.00;6.65;;;16.60;99.90;;;;;;5047436;28;20043;-73
2023/10/12 01:00:51;;;;;;;19.20;6.40;;;16.60;99.90;;;;;;5046108;28;20025;-72
2023/10/12 01:03:35;;;;;;;15.93;5.78;;;16.60;99.90;;;;;;5043540;28;20047;-71
2023/10/12 01:06:13;;;;;;;19.23;5.93;;;16.50;99.90;;;;;;5028168;28;20033;-72
2023/10/12 01:08:43;;;;;;;26.73;6.10;;;16.50;99.90;;;;;;5028058;28;20036;-72
2023/10/12 01:11:10;;;;;;;;;;;16.40;99.90;;;;;;5047347;28;20072;-73
2023/10/12 01:13:35;;;;;;;16.15;4.93;;;16.40;99.90;;;;;;5028196;28;19966;-72
2023/10/12 01:16:15;;;;;;;16.58;4.35;;;16.30;99.90;;;;;;5028566;28;20516;-72
2023/10/12 01:18:44;;;;;;;15.30;4.38;;;16.30;99.90;;;;;;5045378;28;20409;-72
2023/10/12 01:21:11;;;;;;;12.40;3.58;;;16.30;99.90;;;;;;5046856;28;20029;-71
2023/10/12 01:23:41;;;;;;;17.10;4.53;;;16.20;99.90;;;;;;5046450;28;20036;-71
2023/10/12 01:26:13;;;;;;;16.50;4.13;;;16.20;99.90;;;;;;5046112;28;20056;-71
2023/10/12 01:28:39;;;;;;;12.52;3.10;;;16.10;99.90;;;;;;5045965;28;20029;-72
2023/10/12 01:31:05;;;;;;;20.40;4.68;;;16.10;99.90;;;;;;5028573;28;20695;-72
2023/10/12 01:33:30;;;;;;;12.75;3.15;;;16.10;99.90;;;;;;5045653;28;20044;-72
2023/10/12 01:35:56;;;;;;;11.93;3.55;;;16.00;99.90;;;;;;5027698;28;20041;-70
2023/10/12 01:38:22;;;;;;;12.20;2.63;;;16.00;99.90;;;;;;5046117;28;20072;-72
2023/10/12 01:40:54;;;;;;;6.65;2.55;;;16.00;99.90;;;;;;5027327;28;20117;-71
2023/10/12 01:43:20;;;;;;;9.02;2.60;;;16.00;99.90;;;;;;5047434;28;20037;-70
2023/10/12 01:45:55;;;;;;;8.95;2.90;;;16.00;99.90;;;;;;5045866;28;20044;-72
2023/10/12 01:48:29;;;;;;;7.43;2.58;;;15.90;99.90;;;;;;5046463;28;20029;-71
2023/10/12 01:50:55;;;;;;;13.10;3.10;;;16.00;99.90;;;;;;5045427;28;20052;-72
2023/10/12 01:55:47;;;;;;;13.13;3.20;;;16.00;99.90;;;;;;5044794;28;20112;-70
2023/10/12 01:58:15;;;;;;;9.63;2.67;;;15.90;99.90;;;;;;5046435;28;20029;-72
2023/10/12 02:00:42;;;;;;;8.88;2.20;;;16.00;99.90;;;;;;5019288;28;20040;-73
2023/10/12 02:03:20;;;;;;;6.88;2.35;;;16.00;99.90;;;;;;5027821;28;20485;-72
2023/10/12 02:05:58;;;;;;;7.93;2.63;;;16.00;99.90;;;;;;5024069;28;20048;-72
2023/10/12 02:08:39;;;;;;;10.15;2.92;;;16.00;99.90;;;;;;5028612;28;20036;-71
2023/10/12 02:11:09;;;;;;;13.23;3.40;;;16.00;99.90;;;;;;5045284;28;20045;-73
2023/10/12 02:13:36;;;;;;;10.43;2.72;;;16.00;99.90;;;;;;5027953;28;20156;-70
2023/10/12 02:16:03;;;;;;;16.00;3.13;;;16.00;99.90;;;;;;5045286;28;20036;-72
2023/10/12 02:18:30;;;;;;;12.82;3.10;;;16.00;99.90;;;;;;5045249;28;20037;-73
2023/10/12 02:27:01;;;;;;;16.20;3.13;;;15.90;99.90;;;;;;5042662;28;20103;-72
2023/10/12 02:34:19;;;;;;;16.00;4.13;;;15.90;99.90;;;;;;5042799;28;20432;-71
2023/10/12 02:37:16;;;;;;;13.00;4.43;;;15.90;99.90;;;;;;5026201;28;20037;-73
2023/10/12 02:39:42;;;;;;;15.82;4.00;;;15.90;99.90;;;;;;5041325;28;20040;-72
2023/10/12 02:42:12;;;;;;;15.48;3.85;;;15.90;99.90;;;;;;5045025;28;20082;-73
2023/10/12 02:47:12;;;;;;;15.90;3.75;;;15.90;99.90;;;;;;5041864;28;20033;-71
2023/10/12 02:49:41;;;;;;;17.10;4.75;;;15.90;99.90;;;;;;5026946;28;20029;-71
2023/10/12 02:52:08;;;;;;;15.80;3.40;;;15.90;99.90;;;;;;5040983;28;20650;-71
2023/10/12 02:54:55;;;;;;;11.60;4.60;;;15.90;99.90;;;;;;5026783;28;20585;-70
2023/10/12 02:57:25;;;;;;;13.25;3.17;;;15.90;99.90;;;;;;5030119;28;20460;-71
2023/10/12 03:00:34;;;;;;;14.48;3.33;;;15.80;99.90;;;;;;5030138;28;20835;-72
2023/10/12 03:02:46;;;;;;;10.85;3.80;;;15.90;99.90;;;;;;5040205;28;20032;-72
2023/10/12 03:05:17;;;;;;;17.83;3.55;;;15.80;99.90;;;;;;5049717;28;20044;-72
2023/10/12 03:07:44;;;;;;;9.07;2.88;;;15.80;99.90;;;;;;5030668;28;20120;-74
2023/10/12 03:10:24;;;;;;;16.52;3.35;;;15.80;99.90;;;;;;5033248;28;20108;-70
2023/10/12 03:12:54;;;;;;;9.85;3.60;;;15.90;99.90;;;;;;5033817;28;20427;-73
2023/10/12 03:15:21;;;;;;;;;;;15.80;99.90;;;;;;5031671;28;20037;-73
2023/10/12 03:17:54;;;;;;;7.45;2.35;;;15.80;99.90;;;;;;5030098;28;20067;-74
2023/10/12 03:20:22;;;;;;;2.80;1.17;;;15.80;99.90;;;;;;5036418;28;20029;-71
2023/10/12 03:22:52;;;;;;;1.55;0.75;;;15.80;99.90;;;;;;5045218;28;20080;-73
2023/10/12 03:25:38;;;;;;;1.50;0.32;;;15.80;99.90;;;;;;5029367;28;20398;-74
2023/10/12 03:28:13;;;;;;;2.67;0.82;;;15.70;99.90;;;;;;5044621;28;20040;-71
2023/10/12 03:30:53;;;;;;;0.95;0.20;;;15.70;99.90;;;;;;5044894;28;20036;-74
2023/10/12 03:33:19;;;;;;;0.70;0.23;;;15.60;99.90;;;;;;5048873;28;20593;-72
2023/10/12 03:35:57;;;;;;;2.30;0.55;;;15.60;99.90;;;;;;5050077;28;20374;-74
2023/10/12 03:38:25;;;;;;;5.55;0.75;;;15.60;99.90;;;;;;5053488;28;20035;-73
2023/10/12 03:41:30;;;;;;;3.70;0.73;;;15.60;99.90;;;;;;5047938;28;20029;-73
2023/10/12 03:43:39;;;;;;;0.85;0.30;;;15.50;99.90;;;;;;5044288;28;20069;-72
2023/10/12 03:51:25;;;;;;;4.13;0.30;;;15.30;99.90;;;;;;5045646;28;20041;-72
2023/10/12 03:53:57;;;;;;;1.33;0.43;;;15.20;99.90;;;;;;5028095;28;20033;-72
2023/10/12 03:56:28;;;;;;;0.60;0.20;;;15.20;99.90;;;;;;5030066;28;20095;-72
2023/10/12 03:59:06;;;;;;;0.43;0.22;;;15.20;99.90;;;;;;5046990;28;20126;-73
2023/10/12 04:01:34;;;;;;;0.32;0.10;;;15.20;99.90;;;;;;5029286;28;20063;-74
2023/10/12 04:04:09;;;;;;;3.03;0.20;;;15.20;99.90;;;;;;5029867;28;20037;-72
2023/10/12 04:06:57;;;;;;;0.50;0.35;;;15.20;99.90;;;;;;5029607;28;20029;-73
2023/10/12 04:09:31;;;;;;;0.88;0.10;;;15.20;99.90;;;;;;5047423;28;20039;-73
2023/10/12 04:12:49;;;;;;;1.63;0.30;;;15.10;99.90;;;;;;5034932;28;20550;-72
2023/10/12 04:14:49;;;;;;;2.97;0.20;;;15.20;99.90;;;;;;5028041;28;20033;-72
2023/10/12 04:25:21;;;;;;;0.77;0.22;;;15.20;99.90;;;;;;5045406;28;20044;-72
2023/10/12 04:27:57;;;;;;;0.70;0.20;;;15.20;99.90;;;;;;5046591;28;20048;-72
2023/10/12 04:30:32;;;;;;;0.95;0.20;;;15.20;99.90;;;;;;5047927;28;20120;-73
2023/10/12 04:33:14;;;;;;;0.30;0.20;;;15.30;99.90;;;;;;5028664;28;20437;-71
2023/10/12 04:36:09;;;;;;;0.75;0.30;;;15.20;99.90;;;;;;5043569;28;20025;-74
2023/10/12 04:38:46;;;;;;;1.23;0.22;;;15.20;99.90;;;;;;5043291;28;20033;-72
2023/10/12 04:41:24;;;;;;;0.82;0.50;;;15.20;99.90;;;;;;5027697;28;20043;-73
2023/10/12 04:43:53;;;;;;;0.43;0.20;;;15.20;99.90;;;;;;5025918;28;20037;-72
2023/10/12 04:48:50;;;;;;;0.32;0.20;;;15.20;99.90;;;;;;5046667;28;20492;-73
2023/10/12 04:51:19;;;;;;;1.23;0.30;;;15.20;99.90;;;;;;5047438;28;20068;-71
2023/10/12 04:54:16;;;;;;;0.47;0.30;;;15.10;99.90;;;;;;5028208;28;20489;-74
2023/10/12 04:56:54;;;;;;;0.47;0.17;;;15.10;99.90;;;;;;5029322;28;20126;-72
2023/10/12 04:59:26;;;;;;;1.50;0.20;;;15.00;99.90;;;;;;5026004;28;20045;-73
2023/10/12 05:04:38;;;;;;;0.30;0.15;;;15.00;99.90;;;;;;5046310;28;20079;-73
2023/10/12 05:09:49;;;;;;;1.95;0.20;;;15.00;99.90;;;;;;5045708;28;20037;-72
2023/10/12 05:12:18;;;;;;;0.22;0.15;;;14.90;99.90;;;;;;5036823;28;20447;-72
2023/10/12 05:14:44;;;;;;;1.25;0.20;;;14.80;99.90;;;;;;5034602;28;20176;-72
2023/10/12 05:17:09;;;;;;;2.50;0.25;;;14.80;99.90;;;;;;5045038;28;20579;-71
2023/10/12 05:19:35;;;;;;;0.52;0.10;;;14.70;99.90;;;;;;5032413;28;20037;-72
2023/10/12 05:22:01;;;;;;;0.57;0.30;;;14.60;99.90;;;;;;5046621;28;20485;-73
2023/10/12 05:24:27;;;;;;;0.90;0.32;;;14.60;99.90;;;;;;5034139;28;20033;-73
2023/10/12 05:26:56;;;;;;;1.17;0.25;;;14.50;99.90;;;;;;5033810;28;20033;-73
2023/10/12 05:32:05;;;;;;;0.40;0.10;;;14.50;99.90;;;;;;5050152;28;20037;-73
2023/10/12 05:34:45;;;;;;;1.92;0.20;;;14.40;99.90;;;;;;5046430;28;20129;-72
2023/10/12 05:39:59;;;;;;;0.95;0.30;;;14.30;99.90;;;;;;5044524;28;20025;-74
2023/10/12 05:42:25;;;;;;;0.63;0.20;;;14.20;99.90;;;;;;5038607;28;20488;-71
2023/10/12 05:44:53;;;;;;;2.05;0.20;;;14.20;99.90;;;;;;5051023;28;20048;-75
2023/10/12 05:47:31;;;;;;;0.85;0.10;;;14.10;99.90;;;;;;5034331;28;20507;-72
2023/10/12 05:49:58;;;;;;;3.08;1.08;;;14.10;99.90;;;;;;5039401;28;20045;-74
2023/10/12 05:52:24;;;;;;;2.60;0.20;;;14.10;99.90;;;;;;5038288;28;20583;-73
2023/10/12 05:54:57;;;;;;;1.67;0.73;;;14.00;99.90;;;;;;5036523;28;20031;-71
2023/10/12 05:57:25;;;;;;;3.78;0.75;;;14.00;99.90;;;;;;5035680;28;20044;-72
2023/10/12 05:59:51;;;;;;;3.42;0.70;;;14.00;99.90;;;;;;5035575;28;20029;-72
2023/10/12 06:02:22;;;;;;;3.42;0.40;;;13.90;99.90;;;;;;5047529;28;20414;-70
2023/10/12 06:04:47;;;;;;;2.47;0.55;;;14.00;99.90;;;;;;5045333;28;20036;-72
2023/10/12 06:07:14;;;;;;;1.85;0.50;;;13.90;99.90;;;;;;5048046;28;20045;-72
2023/10/12 06:09:40;;;;;;;8.45;0.63;;;13.90;99.90;;;;;;5036501;28;20041;-75
2023/10/12 06:12:07;;;;;;;4.43;0.82;;;13.90;99.90;;;;;;5044769;28;20095;-72
2023/10/12 06:14:38;;;;;;;3.63;1.08;;;13.90;99.90;;;;;;5033362;28;20029;-73
2023/10/12 06:17:27;;;;;;;4.30;0.60;;;13.90;99.90;;;;;;5037185;28;20033;-72
2023/10/12 06:19:55;;;;;;;3.50;0.40;;;13.90;99.90;;;;;;5040025;28;20037;-74
2023/10/12 06:22:23;;;;;;;1.02;0.40;;;14.00;99.90;;;;;;5048481;28;20104;-74
2023/10/12 06:24:49;;;;;;;0.93;0.40;;;13.90;99.90;;;;;;5044294;28;20052;-73
2023/10/12 06:29:54;;;;;;;5.40;0.57;;;13.90;99.90;;;;;;5044276;28;20101;-74
2023/10/12 06:32:32;;;;;;;4.68;0.70;;;13.90;99.90;;;;;;5035361;28;20120;-72
2023/10/12 06:45:51;;;;;;;3.83;0.57;;;14.00;99.90;;;;;;5044770;28;20029;-72
2023/10/12 06:51:06;;;;;;;4.75;0.50;;;14.00;99.90;;;;;;5051306;28;20088;-73
2023/10/12 06:53:34;;;;;;;1.52;0.35;;;14.00;99.90;;;;;;5033956;28;20037;-71
2023/10/12 06:58:43;;;;;;;3.10;0.80;;;14.10;99.90;;;;;;5048158;28;20121;-73
2023/10/12 07:01:26;;;;;;;3.42;0.57;;;14.00;99.90;;;;;;5049471;28;20040;-73
2023/10/12 07:03:52;;;;;;;1.70;0.50;;;14.10;99.90;;;;;;5036966;28;20037;-72
2023/10/12 07:06:18;;;;;;;2.60;0.85;;;14.10;99.90;;;;;;5046447;28;20659;-72
2023/10/12 07:08:46;;;;;;;2.78;0.70;;;14.00;99.90;;;;;;5035813;28;20044;-74
2023/10/12 07:11:14;;;;;;;2.97;0.52;;;14.00;99.90;;;;;;5042617;28;20040;-72
2023/10/12 07:13:41;;;;;;;3.55;0.70;;;14.00;99.90;;;;;;5053473;28;20052;-75
2023/10/12 07:16:08;;;;;;;4.10;0.57;;;14.00;99.90;;;;;;5041126;28;20139;-73
2023/10/12 07:18:34;;;;;;;2.47;0.60;;;14.00;99.90;;;;;;5046680;28;20547;-72
2023/10/12 07:21:00;;;;;;;0.88;0.35;;;14.00;99.90;;;;;;5036108;28;20102;-73
2023/10/12 07:23:35;;;;;;;6.85;0.80;;;14.00;99.90;;;;;;5038879;28;20033;-73
2023/10/12 07:26:07;;;;;;;4.30;0.70;;;14.00;99.90;;;;;;5031830;28;20033;-71
2023/10/12 07:28:33;;;;;;;1.70;0.57;;;14.00;99.90;;;;;;5036220;28;20033;-71
2023/10/12 07:33:52;;;;;;;2.65;0.60;;;14.00;99.90;;;;;;5055606;28;20033;-70
2023/10/12 07:36:17;;;;;;;1.65;0.50;;;14.00;99.90;;;;;;5040508;28;20147;-71
2023/10/12 07:38:55;;;;;;;3.03;0.43;;;14.00;99.90;;;;;;5042314;28;20059;-73
2023/10/12 07:41:33;;;;;;;0.60;0.32;;;14.00;99.90;;;;;;5049224;28;20120;-71
2023/10/12 07:43:59;;;;;;;4.55;0.55;;;14.00;99.90;;;;;;5050112;28;20053;-72
2023/10/12 07:46:25;;;;;;;1.13;0.43;;;14.00;99.90;;;;;;5050054;28;20060;-71
2023/10/12 07:48:51;;;;;;;2.83;0.43;;;14.00;99.90;;;;;;5054306;28;20094;-71
2023/10/12 07:51:26;;;;;;;3.88;0.73;;;14.00;99.90;;;;;;5044425;28;20064;-71
2023/10/12 07:54:00;;;;;;;2.67;0.85;;;14.00;99.90;;;;;;5057329;28;20041;-71
2023/10/12 07:56:34;;;;;;;2.13;0.70;;;14.00;99.90;;;;;;5045561;28;20040;-71
2023/10/12 07:59:00;;;;;;;3.45;0.68;;;14.00;99.90;;;;;;5051140;28;20033;-72
2023/10/12 08:04:00;;;;;;;2.40;0.63;;;14.00;99.90;;;;;;5049400;28;20048;-73
2023/10/12 08:09:19;;;;;;;3.13;0.47;;;14.10;99.90;;;;;;5057184;28;20098;-73
2023/10/12 08:11:45;;;;;;;2.10;0.52;;;14.00;99.90;;;;;;5036801;28;20520;-73
2023/10/12 08:14:39;;;;;;;2.20;0.63;;;14.00;99.90;;;;;;5037598;28;20551;-72
2023/10/12 08:19:56;;;;;;;1.92;0.55;;;14.00;99.90;;;;;;5054762;28;20040;-71
2023/10/12 08:22:31;;;;;;;1.27;0.40;;;14.00;99.90;;;;;;5052547;28;20426;-72
2023/10/12 08:24:58;;;;;;;1.33;0.70;;;14.00;99.90;;;;;;5037827;28;20037;-71
2023/10/12 08:27:25;;;;;;;1.52;0.70;;;14.10;99.90;;;;;;5038489;28;20087;-72
2023/10/12 08:37:26;;;;;;;3.90;0.77;;;14.10;99.90;;;;;;5045357;28;20041;-73
2023/10/12 08:45:12;;;;;;;4.20;0.80;;;14.20;99.90;;;;;;5042684;28;20029;-73
2023/10/12 08:52:52;;;;;;;1.17;0.70;;;14.30;99.90;;;;;;5046160;28;20444;-73
2023/10/12 08:55:19;;;;;;;1.05;0.55;;;14.30;99.90;;;;;;5046272;28;20282;-72
2023/10/12 08:58:01;;;;;;;3.92;0.68;;;14.30;99.90;;;;;;5036094;28;20017;-73
2023/10/12 09:03:06;;;;;;;0.95;0.50;;;14.30;99.90;;;;;;5056108;28;20093;-72
2023/10/12 09:05:33;;;;;;;2.38;0.93;;;14.30;99.90;;;;;;5041884;28;20064;-70
2023/10/12 09:13:30;;;;;;;1.08;0.47;;;14.30;99.90;;;;;;5055264;28;20072;-72
2023/10/12 09:15:58;;;;;;;0.68;0.35;;;14.30;99.90;;;;;;5051707;28;20492;-71
2023/10/12 09:18:30;;;;;;;2.53;1.17;;;14.30;99.90;;;;;;5049239;28;20050;-74
2023/10/12 09:23:29;;;;;;;1.30;0.50;;;14.40;99.90;;;;;;5054116;28;20501;-73
2023/10/12 09:31:15;;;;;;;2.60;0.40;;;14.40;99.90;;;;;;5049519;28;20419;-72
2023/10/12 09:36:26;;;;;;;1.00;0.43;;;14.40;99.90;;;;;;5050188;28;20079;-72
2023/10/12 09:38:55;;;;;;;0.80;0.40;;;14.50;99.90;;;;;;5043622;28;20035;-72
2023/10/12 09:41:41;;;;;;;0.57;0.40;;;14.40;99.90;;;;;;5045937;28;20476;-73
2023/10/12 09:44:11;;;;;;;1.30;0.65;;;14.50;99.90;;;;;;5042771;28;20032;-72
2023/10/12 09:46:47;;;;;;;5.20;1.60;;;14.40;99.90;;;;;;5047395;28;20095;-74
2023/10/12 09:49:27;;;;;;;1.33;0.60;;;14.40;99.90;;;;;;5046200;28;20045;-71
2023/10/12 09:52:04;;;;;;;3.95;1.48;;;14.40;99.90;;;;;;5015674;28;20757;-71
2023/10/12 09:54:49;;;;;;;3.30;1.13;;;14.40;99.90;;;;;;5034204;28;20485;-73
2023/10/12 09:57:26;;;;;;;3.30;1.33;;;14.40;99.90;;;;;;5039005;28;20024;-72
2023/10/12 10:00:18;;;;;;;3.63;1.08;;;14.40;99.90;;;;;;5051933;28;20503;-73
2023/10/12 10:02:44;;;;;;;1.67;0.80;;;14.40;99.90;;;;;;5035163;28;20095;-73
2023/10/12 10:05:11;;;;;;;0.98;0.55;;;14.50;99.90;;;;;;5043655;28;20035;-73
2023/10/12 10:07:50;;;;;;;2.05;0.40;;;14.50;99.90;;;;;;5039157;28;20546;-73
2023/10/12 10:10:27;;;;;;;0.85;0.40;;;14.50;99.90;;;;;;5049618;28;20056;-72
2023/10/12 10:12:53;;;;;;;0.90;0.60;;;14.50;99.90;;;;;;5034523;28;20048;-71
2023/10/12 10:15:24;;;;;;;0.98;0.60;;;14.50;99.90;;;;;;5037424;28;20037;-72
2023/10/12 10:17:55;;;;;;;2.05;0.80;;;14.50;99.90;;;;;;5040605;28;20039;-74
2023/10/12 10:23:00;;;;;;;1.52;0.80;;;14.50;99.90;;;;;;5041546;28;20089;-71
2023/10/12 10:25:42;;;;;;;1.58;0.65;;;14.50;99.90;;;;;;5037801;28;20090;-73
2023/10/12 10:28:13;;;;;;;1.58;0.93;;;14.50;99.90;;;;;;5032452;28;20040;-72
2023/10/12 10:30:41;;;;;;;1.45;0.90;;;14.50;99.90;;;;;;5030370;28;20048;-70
2023/10/12 10:33:17;;;;;;;1.50;1.00;;;14.50;99.90;;;;;;5035893;28;20040;-71
2023/10/12 10:36:17;;;;;;;1.77;0.90;;;14.40;99.90;;;;;;5033982;28;20033;-72
2023/10/12 10:41:23;;;;;;;2.55;1.30;;;14.40;99.90;;;;;;5040724;28;20032;-73
2023/10/12 10:43:51;;;;;;;;;;;14.50;99.90;;;;;;5031999;28;20080;-71
2023/10/12 10:46:18;;;;;;;2.35;1.00;;;14.50;99.90;;;;;;5034891;28;19917;-72
2023/10/12 10:48:49;;;;;;;2.13;1.10;;;14.50;99.90;;;;;;5031301;28;20148;-70
2023/10/12 10:51:19;;;;;;;2.95;1.10;;;14.50;99.90;;;;;;5027852;28;20037;-73
2023/10/12 10:53:54;;;;;;;4.43;1.30;;;14.60;99.90;;;;;;5036557;28;20041;-73
2023/10/12 10:56:47;;;;;;;2.30;1.38;;;14.60;99.90;;;;;;5051357;28;20029;-74
2023/10/12 10:59:13;;;;;;;2.15;1.33;;;14.60;99.90;;;;;;5039160;28;20044;-73
2023/10/12 11:01:52;;;;;;;2.65;1.13;;;14.60;99.90;;;;;;5041897;28;20112;-73
2023/10/12 11:07:03;;;;;;;3.15;1.60;;;14.60;99.90;;;;;;5051102;28;20036;-73
2023/10/12 11:09:49;;;;;;;4.35;1.42;;;14.70;99.90;;;;;;5044495;28;20044;-73
2023/10/12 11:12:23;;;;;;;1.30;0.90;;;14.80;99.90;;;;;;5043411;28;20356;-72
2023/10/12 11:18:00;;;;;;;2.17;1.13;;;14.70;99.90;;;;;;4954118;28;20110;-74
2023/10/12 11:20:35;;;;;;;2.17;1.48;;;14.80;99.90;;;;;;5025556;28;20021;-74
2023/10/12 11:23:06;;;;;;;1.60;1.08;;;14.80;99.90;;;;;;5036216;28;20041;-72
2023/10/12 11:25:39;;;;;;;2.55;1.40;;;14.80;99.90;;;;;;5040016;28;20060;-71
2023/10/12 11:28:26;;;;;;;3.35;1.70;;;14.80;99.90;;;;;;5044427;28;20087;-71
2023/10/12 11:30:52;;;;;;;3.13;1.48;;;14.80;99.90;;;;;;5033629;28;20116;-73
2023/10/12 11:33:27;;;;;;;5.72;1.63;;;14.80;99.90;;;;;;5036744;28;20044;-74
2023/10/12 11:35:54;;;;;;;5.75;1.95;;;14.80;99.90;;;;;;5035851;28;20044;-74
2023/10/12 11:38:22;;;;;;;3.90;1.60;;;14.80;99.90;;;;;;5045058;28;20025;-72
2023/10/12 11:40:58;;;;;;;3.97;1.85;;;14.80;99.90;;;;;;5034214;28;20083;-72
2023/10/12 11:43:52;;;;;;;4.60;2.45;;;14.80;99.90;;;;;;5049706;28;20036;-73
2023/10/12 11:46:18;;;;;;;4.82;2.50;;;14.80;99.90;;;;;;5034612;28;20056;-72
2023/10/12 11:48:44;;;;;;;5.85;2.28;;;14.80;99.90;;;;;;5036697;28;20768;-72
2023/10/12 11:51:11;;;;;;;6.60;3.17;;;14.70;99.90;;;;;;5038287;28;20041;-71
2023/10/12 11:53:38;;;;;;;5.03;2.75;;;14.80;99.90;;;;;;5039025;28;20045;-72
2023/10/12 11:56:14;;;;;;;6.57;3.40;;;14.80;99.90;;;;;;5048960;28;20042;-72
2023/10/12 11:58:41;;;;;;;6.70;3.40;;;14.80;99.90;;;;;;5032657;28;20039;-73
2023/10/12 12:01:12;;;;;;;7.35;3.30;;;14.80;99.90;;;;;;5048717;28;20037;-74
2023/10/12 12:03:39;;;;;;;8.15;3.78;;;14.80;99.90;;;;;;5039054;28;20091;-71
2023/10/12 12:06:11;;;;;;;9.40;4.10;;;14.80;99.90;;;;;;5037060;28;20033;-73
2023/10/12 12:08:36;;;;;;;7.90;3.58;;;14.80;99.90;;;;;;5042212;28;20041;-71
2023/10/12 12:11:03;;;;;;;8.93;4.38;;;14.80;99.90;;;;;;5038924;28;20370;-72
2023/10/12 12:13:29;;;;;;;13.32;5.07;;;14.90;99.90;;;;;;5038841;28;20098;-72
2023/10/12 12:15:57;;;;;;;15.13;4.20;;;14.90;99.90;;;;;;5050283;28;20048;-70
2023/10/12 12:18:23;;;;;;;15.95;5.55;;;14.90;99.90;;;;;;5045181;28;20412;-72
2023/10/12 12:20:51;;;;;;;13.40;4.95;;;14.90;99.90;;;;;;5042894;28;20033;-71
2023/10/12 12:23:18;;;;;;;17.35;6.28;;;14.90;99.90;;;;;;5039156;28;20032;-70
2023/10/12 12:25:44;;;;;;;10.02;5.03;;;15.00;99.90;;;;;;5048094;28;20821;-70
2023/10/12 12:28:14;;;;;;;12.23;5.32;;;15.00;99.90;;;;;;5041617;28;20104;-73
2023/10/12 12:30:55;;;;;;;14.23;5.25;;;15.00;99.90;;;;;;5043770;28;20044;-70
2023/10/12 12:33:21;;;;;;;;;;;15.00;99.90;;;;;;5041472;28;20125;-70
2023/10/12 12:35:48;;;;;;;11.75;4.75;;;15.00;99.90;;;;;;5053979;28;19967;-71
2023/10/12 12:40:59;;;;;;;15.52;5.63;;;15.00;99.90;;;;;;5052128;28;20076;-73
2023/10/12 12:43:25;;;;;;;15.43;5.28;;;15.10;99.90;;;;;;5048705;28;20036;-70
2023/10/12 12:45:52;;;;;;;15.82;5.65;;;15.10;99.90;;;;;;5042025;28;20033;-71
2023/10/12 12:48:19;;;;;;;15.63;6.55;;;15.10;99.90;;;;;;5057621;28;20039;-71
2023/10/12 12:50:45;;;;;;;11.73;5.53;;;15.10;99.90;;;;;;5037786;28;20091;-72
2023/10/12 12:53:11;;;;;;;11.45;5.47;;;15.10;99.90;;;;;;5038522;28;20036;-72
2023/10/12 12:55:40;;;;;;;17.20;6.63;;;15.10;99.90;;;;;;5041368;28;20382;-72
2023/10/12 12:58:07;;;;;;;14.95;6.00;;;15.20;99.90;;;;;;5044323;28;20487;-72
2023/10/12 13:00:35;;;;;;;18.08;6.53;;;15.20;99.90;;;;;;5033811;28;20037;-71
2023/10/12 13:03:01;;;;;;;15.68;5.47;;;15.20;99.90;;;;;;5036814;28;20036;-72
2023/10/12 13:05:30;;;;;;;14.20;5.20;;;15.20;99.90;;;;;;5048461;28;20044;-71
2023/10/12 13:07:56;;;;;;;19.40;5.00;;;15.20;99.90;;;;;;5029654;28;20037;-71
2023/10/12 13:10:25;;;;;;;16.15;5.65;;;15.10;99.90;;;;;;5044370;28;20037;-70
2023/10/12 13:12:51;;;;;;;13.23;3.67;;;15.20;99.90;;;;;;5036898;28;20610;-70
2023/10/12 13:15:17;;;;;;;12.52;4.28;;;15.20;99.90;;;;;;5034527;28;20029;-70
2023/10/12 13:17:43;;;;;;;9.65;3.70;;;15.20;99.90;;;;;;5049793;28;20564;-70
2023/10/12 13:20:50;;;;;;;10.98;3.90;;;15.20;99.90;;;;;;5044404;28;20055;-71
2023/10/12 13:22:57;;;;;;;6.22;2.38;;;15.20;99.90;;;;;;5037438;28;20041;-71
2023/10/12 13:25:26;;;;;;;5.82;2.20;;;15.20;99.90;;;;;;5045684;28;20029;-71
2023/10/12 13:27:52;;;;;;;5.78;2.55;;;15.30;99.90;;;;;;5037639;28;20547;-70
2023/10/12 13:30:18;;;;;;;7.63;2.50;;;15.30;99.90;;;;;;5042986;28;20052;-71
2023/10/12 13:32:48;;;;;;;5.07;2.30;;;15.40;99.90;;;;;;5031462;28;20033;-70
2023/10/12 13:35:31;;;;;;;8.98;3.00;;;15.40;99.90;;;;;;5037027;28;20037;-70
2023/10/12 13:38:03;;;;;;;6.97;2.67;;;15.40;99.90;;;;;;5041772;28;20043;-70
2023/10/12 13:40:30;;;;;;;7.63;2.85;;;15.40;99.90;;;;;;5026733;28;20103;-72
2023/10/12 13:43:06;;;;;;;6.45;3.10;;;15.50;99.90;;;;;;5044081;28;20029;-72
2023/10/12 13:45:32;;;;;;;9.35;3.33;;;15.50;99.90;;;;;;5027419;28;20121;-71
2023/10/12 13:47:58;;;;;;;8.73;3.38;;;15.50;99.90;;;;;;5046314;28;20459;-73
2023/10/12 13:50:23;;;;;;;7.43;3.67;;;15.50;99.90;;;;;;5047772;28;20035;-70
2023/10/12 13:52:49;;;;;;;12.23;4.50;;;15.50;99.90;;;;;;5046648;28;20052;-71
2023/10/12 13:55:15;;;;;;;9.45;4.70;;;15.60;99.90;;;;;;5039571;28;20033;-70
2023/10/12 13:57:50;;;;;;;9.45;4.38;;;15.60;99.90;;;;;;5046572;28;20055;-74
2023/10/12 14:00:22;;;;;;;14.57;4.43;;;15.70;99.90;;;;;;5048123;28;20068;-70
2023/10/12 14:02:49;;;;;;;11.95;4.90;;;15.70;99.90;;;;;;5045395;28;20057;-70
2023/10/12 14:05:24;;;;;;;10.15;4.90;;;15.80;99.90;;;;;;5028736;28;20500;-70
2023/10/12 14:07:54;;;;;;;8.10;3.92;;;15.80;99.90;;;;;;5027445;28;20032;-70
2023/10/12 14:10:22;;;;;;;9.30;3.92;;;15.80;99.90;;;;;;5046098;28;20032;-70
2023/10/12 14:12:49;;;;;;;5.30;3.33;;;15.90;99.90;;;;;;5026624;28;21251;-71
2023/10/12 14:15:15;;;;;;;5.40;3.42;;;15.90;99.90;;;;;;5028385;28;20036;-70
2023/10/12 14:17:40;;;;;;;5.32;3.75;;;15.90;99.90;;;;;;5027607;28;20037;-70
2023/10/12 14:20:08;;;;;;;5.78;3.90;;;15.90;99.90;;;;;;5045496;28;20041;-70
2023/10/12 14:22:34;;;;;;;8.20;4.40;;;16.00;99.90;;;;;;5027460;28;20029;-71
2023/10/12 14:25:06;;;;;;;7.72;4.40;;;16.00;99.90;;;;;;5027598;28;20029;-70
2023/10/12 14:27:33;;;;;;;8.02;4.18;;;16.00;99.90;;;;;;5045120;28;20114;-71
2023/10/12 14:30:13;;;;;;;14.05;4.72;;;16.00;99.90;;;;;;5027750;28;20029;-70
2023/10/12 14:32:40;;;;;;;;;;;15.90;99.90;;;;;;5045584;28;20037;-71
2023/10/12 14:35:06;;;;;;;9.52;4.57;;;15.90;99.90;;;;;;5027639;28;19917;-72
2023/10/12 14:37:36;;;;;;;13.85;5.68;;;15.90;99.90;;;;;;5026848;28;20033;-72
2023/10/12 14:40:05;;;;;;;;;;;15.90;99.90;;;;;;5027660;28;20033;-72
2023/10/12 14:42:32;;;;;;;10.25;5.05;;;15.90;99.90;;;;;;5027496;28;20011;-72
2023/10/12 14:44:58;;;;;;;10.45;5.78;;;15.90;99.90;;;;;;5045340;28;20045;-72
2023/10/12 14:47:23;;;;;;;10.68;5.65;;;15.90;99.90;;;;;;5027902;28;20404;-70
2023/10/12 14:49:50;;;;;;;13.65;6.85;;;15.90;99.90;;;;;;5027220;28;20043;-71
2023/10/12 14:52:17;;;;;;;20.35;7.32;;;15.90;99.90;;;;;;5046729;28;20036;-72
2023/10/12 14:54:43;;;;;;;16.60;8.20;;;15.90;99.90;;;;;;5049039;28;20036;-71
2023/10/12 14:57:10;;;;;;;15.60;7.85;;;15.90;99.90;;;;;;5031915;28;20037;-71
2023/10/12 14:59:36;;;;;;;17.90;8.27;;;15.80;99.90;;;;;;5049394;28;20037;-71
2023/10/12 15:02:09;;;;;;;15.82;7.88;;;15.90;99.90;;;;;;5045044;28;20504;-71
2023/10/12 15:04:41;;;;;;;17.20;8.05;;;15.90;99.90;;;;;;5030991;28;20037;-70
2023/10/12 15:07:09;;;;;;;19.73;8.60;;;15.90;99.90;;;;;;5030573;28;20403;-72
2023/10/12 15:09:35;;;;;;;17.70;7.10;;;16.00;99.90;;;;;;5032200;28;20373;-73
2023/10/12 15:12:05;;;;;;;17.30;7.85;;;16.00;99.90;;;;;;5028852;28;20076;-72
2023/10/12 15:14:34;;;;;;;21.20;8.10;;;16.00;99.90;;;;;;5034342;28;20045;-72
2023/10/12 15:17:00;;;;;;;19.83;8.00;;;16.00;99.90;;;;;;5051893;28;20045;-73
2023/10/12 15:19:27;;;;;;;19.92;8.65;;;16.00;99.90;;;;;;5030408;28;20830;-71
2023/10/12 15:21:53;;;;;;;18.83;7.97;;;16.10;99.90;;;;;;5047284;28;20039;-71